ADDS METAR Data INFO
IDs: Format: Raw Decoded Include TAF

Data at: 1858 UTC 22 Sep 2017

METAR for:LFAQ (Albert/Picardie Arpt, --, FR)
Text:LFAQ 221830Z AUTO 32006KT CAVOK 13/09 Q1023
Temperature: 13.0°C ( 55°F)
Dewpoint: 9.0°C ( 48°F) [RH = 77%]
Pressure (altimeter):30.21 inches Hg (1023.0 mb)
Winds:from the NW (320 degrees) at 7 MPH (6 knots; 3.1 m/s)
Visibility:6 or more sm (10+ km)
Ceiling:ceiling and visibility are OK
Clouds:unknown

TAF for:LFAQ (Albert/Picardie Arpt, --, FR) issued at 1400 UTC 22 Sep 2017
Text:TAF LFAQ 221400Z 2215/2224 30007KT 9999 SCT030
Forecast period:1500 UTC 22 September 2017 to 0000 UTC 23 September 2017
Forecast type:FROM: standard forecast or significant change
Winds:from the WNW (300 degrees) at 8 MPH (7 knots; 3.6 m/s)
Visibility:6 or more sm (10+ km)
Ceiling:at least 12,000 feet AGL
Clouds: scattered clouds at 3000 feet AGL